sensor_id;sensor_type;location;lat;lon;timestamp;P1;durP1;ratioP1;P2;durP2;ratioP2
4011;SDS011;2020;48.682;9.024;2022-09-19T00:03:35;0.57;;;0.40;;
4011;SDS011;2020;48.682;9.024;2022-09-19T00:06:03;1.13;;;0.50;;
4011;SDS011;2020;48.682;9.024;2022-09-19T00:08:29;0.40;;;0.40;;
4011;SDS011;2020;48.682;9.024;2022-09-19T00:10:55;0.40;;;0.40;;
4011;SDS011;2020;48.682;9.024;2022-09-19T00:13:20;0.40;;;0.40;;
4011;SDS011;2020;48.682;9.024;2022-09-19T00:15:46;0.40;;;0.40;;
4011;SDS011;2020;48.682;9.024;2022-09-19T00:18:13;0.40;;;0.40;;
4011;SDS011;2020;48.682;9.024;2022-09-19T00:20:42;0.47;;;0.47;;
4011;SDS011;2020;48.682;9.024;2022-09-19T00:23:15;0.60;;;0.50;;
4011;SDS011;2020;48.682;9.024;2022-09-19T00:26:00;0.60;;;0.50;;
4011;SDS011;2020;48.682;9.024;2022-09-19T00:28:35;0.40;;;0.40;;
4011;SDS011;2020;48.682;9.024;2022-09-19T00:31:01;0.50;;;0.50;;
4011;SDS011;2020;48.682;9.024;2022-09-19T00:33:29;0.40;;;0.40;;
4011;SDS011;2020;48.682;9.024;2022-09-19T00:35:56;0.40;;;0.40;;
4011;SDS011;2020;48.682;9.024;2022-09-19T00:38:23;2.97;;;0.40;;
4011;SDS011;2020;48.682;9.024;2022-09-19T00:40:49;0.37;;;0.37;;
4011;SDS011;2020;48.682;9.024;2022-09-19T00:43:15;0.50;;;0.50;;
4011;SDS011;2020;48.682;9.024;2022-09-19T00:45:42;0.43;;;0.40;;
4011;SDS011;2020;48.682;9.024;2022-09-19T00:48:08;0.40;;;0.40;;
4011;SDS011;2020;48.682;9.024;2022-09-19T00:50:35;0.40;;;0.40;;
4011;SDS011;2020;48.682;9.024;2022-09-19T00:53:03;0.40;;;0.40;;
4011;SDS011;2020;48.682;9.024;2022-09-19T00:55:32;0.40;;;0.40;;
4011;SDS011;2020;48.682;9.024;2022-09-19T00:57:59;0.40;;;0.40;;
4011;SDS011;2020;48.682;9.024;2022-09-19T01:00:28;0.40;;;0.40;;
4011;SDS011;2020;48.682;9.024;2022-09-19T01:02:54;0.40;;;0.40;;
4011;SDS011;2020;48.682;9.024;2022-09-19T01:05:25;0.40;;;0.40;;
4011;SDS011;2020;48.682;9.024;2022-09-19T01:10:45;0.40;;;0.40;;
4011;SDS011;2020;48.682;9.024;2022-09-19T01:16:06;0.40;;;0.40;;
4011;SDS011;2020;48.682;9.024;2022-09-19T01:21:44;0.40;;;0.40;;
4011;SDS011;2020;48.682;9.024;2022-09-19T01:24:41;0.40;;;0.40;;
4011;SDS011;2020;48.682;9.024;2022-09-19T01:30:07;0.70;;;0.40;;
4011;SDS011;2020;48.682;9.024;2022-09-19T01:32:36;0.40;;;0.40;;
4011;SDS011;2020;48.682;9.024;2022-09-19T01:35:08;0.40;;;0.40;;
4011;SDS011;2020;48.682;9.024;2022-09-19T01:37:45;0.50;;;0.50;;
4011;SDS011;2020;48.682;9.024;2022-09-19T01:40:16;0.40;;;0.40;;
4011;SDS011;2020;48.682;9.024;2022-09-19T01:42:49;0.40;;;0.40;;
4011;SDS011;2020;48.682;9.024;2022-09-19T01:45:19;0.50;;;0.50;;
4011;SDS011;2020;48.682;9.024;2022-09-19T01:53:20;3.20;;;0.93;;
4011;SDS011;2020;48.682;9.024;2022-09-19T01:58:28;0.40;;;0.40;;
4011;SDS011;2020;48.682;9.024;2022-09-19T02:01:05;1.33;;;0.40;;
4011;SDS011;2020;48.682;9.024;2022-09-19T02:03:41;0.60;;;0.60;;
4011;SDS011;2020;48.682;9.024;2022-09-19T02:06:19;0.40;;;0.40;;
4011;SDS011;2020;48.682;9.024;2022-09-19T02:11:38;0.60;;;0.60;;
4011;SDS011;2020;48.682;9.024;2022-09-19T02:14:07;0.93;;;0.50;;
4011;SDS011;2020;48.682;9.024;2022-09-19T02:16:53;0.57;;;0.57;;
4011;SDS011;2020;48.682;9.024;2022-09-19T02:19:30;0.50;;;0.50;;
4011;SDS011;2020;48.682;9.024;2022-09-19T02:22:09;0.60;;;0.60;;
4011;SDS011;2020;48.682;9.024;2022-09-19T02:24:40;0.70;;;0.70;;
4011;SDS011;2020;48.682;9.024;2022-09-19T02:27:12;0.60;;;0.60;;
4011;SDS011;2020;48.682;9.024;2022-09-19T02:29:47;0.60;;;0.60;;
4011;SDS011;2020;48.682;9.024;2022-09-19T02:32:17;0.73;;;0.73;;
4011;SDS011;2020;48.682;9.024;2022-09-19T02:34:45;0.70;;;0.70;;
4011;SDS011;2020;48.682;9.024;2022-09-19T02:42:46;0.60;;;0.60;;
4011;SDS011;2020;48.682;9.024;2022-09-19T02:45:27;0.90;;;0.60;;
4011;SDS011;2020;48.682;9.024;2022-09-19T02:50:28;0.70;;;0.70;;
4011;SDS011;2020;48.682;9.024;2022-09-19T02:53:06;0.60;;;0.60;;
4011;SDS011;2020;48.682;9.024;2022-09-19T02:55:38;0.83;;;0.60;;
4011;SDS011;2020;48.682;9.024;2022-09-19T02:58:10;2.30;;;0.90;;
4011;SDS011;2020;48.682;9.024;2022-09-19T03:00:38;0.93;;;0.93;;
4011;SDS011;2020;48.682;9.024;2022-09-19T03:03:10;0.70;;;0.70;;
4011;SDS011;2020;48.682;9.024;2022-09-19T03:05:58;0.50;;;0.50;;
4011;SDS011;2020;48.682;9.024;2022-09-19T03:08:26;2.23;;;0.80;;
4011;SDS011;2020;48.682;9.024;2022-09-19T03:10:55;0.73;;;0.73;;
4011;SDS011;2020;48.682;9.024;2022-09-19T03:13:24;2.50;;;0.70;;
4011;SDS011;2020;48.682;9.024;2022-09-19T03:15:51;0.60;;;0.60;;
4011;SDS011;2020;48.682;9.024;2022-09-19T03:18:22;0.60;;;0.60;;
4011;SDS011;2020;48.682;9.024;2022-09-19T03:20:52;1.00;;;1.00;;
4011;SDS011;2020;48.682;9.024;2022-09-19T03:23:21;0.63;;;0.63;;
4011;SDS011;2020;48.682;9.024;2022-09-19T03:25:50;0.70;;;0.70;;
4011;SDS011;2020;48.682;9.024;2022-09-19T03:28:16;3.27;;;1.67;;
4011;SDS011;2020;48.682;9.024;2022-09-19T03:30:45;1.50;;;0.90;;
4011;SDS011;2020;48.682;9.024;2022-09-19T03:33:10;0.90;;;0.73;;
4011;SDS011;2020;48.682;9.024;2022-09-19T03:35:40;1.67;;;0.70;;
4011;SDS011;2020;48.682;9.024;2022-09-19T03:38:06;3.27;;;0.90;;
4011;SDS011;2020;48.682;9.024;2022-09-19T03:40:31;0.73;;;0.73;;
4011;SDS011;2020;48.682;9.024;2022-09-19T03:42:58;1.00;;;0.70;;
4011;SDS011;2020;48.682;9.024;2022-09-19T03:45:23;1.47;;;0.77;;
4011;SDS011;2020;48.682;9.024;2022-09-19T03:47:48;1.80;;;0.80;;
4011;SDS011;2020;48.682;9.024;2022-09-19T03:50:13;0.90;;;0.90;;
4011;SDS011;2020;48.682;9.024;2022-09-19T03:52:39;0.90;;;0.70;;
4011;SDS011;2020;48.682;9.024;2022-09-19T03:55:04;2.40;;;0.80;;
4011;SDS011;2020;48.682;9.024;2022-09-19T03:57:29;1.50;;;0.87;;
4011;SDS011;2020;48.682;9.024;2022-09-19T03:59:55;0.77;;;0.77;;
4011;SDS011;2020;48.682;9.024;2022-09-19T04:02:20;5.70;;;0.90;;
4011;SDS011;2020;48.682;9.024;2022-09-19T04:04:46;3.93;;;1.00;;
4011;SDS011;2020;48.682;9.024;2022-09-19T04:07:12;1.70;;;0.80;;
4011;SDS011;2020;48.682;9.024;2022-09-19T04:09:38;2.97;;;0.97;;
4011;SDS011;2020;48.682;9.024;2022-09-19T04:12:03;1.27;;;1.00;;
4011;SDS011;2020;48.682;9.024;2022-09-19T04:14:29;1.00;;;1.00;;
4011;SDS011;2020;48.682;9.024;2022-09-19T04:16:55;2.30;;;0.90;;
4011;SDS011;2020;48.682;9.024;2022-09-19T04:19:20;0.90;;;0.83;;
4011;SDS011;2020;48.682;9.024;2022-09-19T04:21:45;0.67;;;0.67;;
4011;SDS011;2020;48.682;9.024;2022-09-19T04:24:11;1.07;;;0.97;;
4011;SDS011;2020;48.682;9.024;2022-09-19T04:26:38;0.80;;;0.80;;
4011;SDS011;2020;48.682;9.024;2022-09-19T04:29:04;2.60;;;0.73;;
4011;SDS011;2020;48.682;9.024;2022-09-19T04:31:31;2.13;;;1.00;;
4011;SDS011;2020;48.682;9.024;2022-09-19T04:34:06;0.70;;;0.70;;
4011;SDS011;2020;48.682;9.024;2022-09-19T04:36:33;1.20;;;0.83;;
4011;SDS011;2020;48.682;9.024;2022-09-19T04:39:00;0.80;;;0.70;;
4011;SDS011;2020;48.682;9.024;2022-09-19T04:41:32;1.60;;;1.00;;
4011;SDS011;2020;48.682;9.024;2022-09-19T04:43:58;0.90;;;0.90;;
4011;SDS011;2020;48.682;9.024;2022-09-19T04:46:24;2.63;;;0.93;;
4011;SDS011;2020;48.682;9.024;2022-09-19T04:48:50;0.83;;;0.83;;
4011;SDS011;2020;48.682;9.024;2022-09-19T04:51:17;0.80;;;0.80;;
4011;SDS011;2020;48.682;9.024;2022-09-19T04:53:43;4.20;;;0.80;;
4011;SDS011;2020;48.682;9.024;2022-09-19T04:56:08;1.00;;;1.00;;
4011;SDS011;2020;48.682;9.024;2022-09-19T04:58:33;2.80;;;1.00;;
4011;SDS011;2020;48.682;9.024;2022-09-19T05:00:58;1.53;;;1.53;;
4011;SDS011;2020;48.682;9.024;2022-09-19T05:03:24;1.67;;;1.13;;
4011;SDS011;2020;48.682;9.024;2022-09-19T05:05:51;1.10;;;1.10;;
4011;SDS011;2020;48.682;9.024;2022-09-19T05:08:18;3.93;;;2.07;;
4011;SDS011;2020;48.682;9.024;2022-09-19T05:10:50;4.23;;;2.17;;
4011;SDS011;2020;48.682;9.024;2022-09-19T05:13:17;1.53;;;1.50;;
4011;SDS011;2020;48.682;9.024;2022-09-19T05:15:43;2.57;;;1.37;;
4011;SDS011;2020;48.682;9.024;2022-09-19T05:18:09;5.13;;;0.80;;
4011;SDS011;2020;48.682;9.024;2022-09-19T05:20:35;1.50;;;1.00;;
4011;SDS011;2020;48.682;9.024;2022-09-19T05:23:01;2.97;;;1.10;;
4011;SDS011;2020;48.682;9.024;2022-09-19T05:25:27;2.77;;;1.37;;
4011;SDS011;2020;48.682;9.024;2022-09-19T05:27:56;4.17;;;1.00;;
4011;SDS011;2020;48.682;9.024;2022-09-19T05:30:22;1.20;;;1.10;;
4011;SDS011;2020;48.682;9.024;2022-09-19T05:32:49;1.63;;;0.77;;
4011;SDS011;2020;48.682;9.024;2022-09-19T05:35:15;0.70;;;0.70;;
4011;SDS011;2020;48.682;9.024;2022-09-19T05:37:43;2.87;;;1.00;;
4011;SDS011;2020;48.682;9.024;2022-09-19T05:40:12;4.00;;;1.60;;
4011;SDS011;2020;48.682;9.024;2022-09-19T05:42:38;1.20;;;1.10;;
4011;SDS011;2020;48.682;9.024;2022-09-19T05:45:06;2.70;;;1.33;;
4011;SDS011;2020;48.682;9.024;2022-09-19T05:47:31;2.50;;;1.27;;
4011;SDS011;2020;48.682;9.024;2022-09-19T05:49:57;1.20;;;1.20;;
4011;SDS011;2020;48.682;9.024;2022-09-19T05:52:22;8.00;;;2.00;;
4011;SDS011;2020;48.682;9.024;2022-09-19T05:55:06;1.60;;;1.30;;
4011;SDS011;2020;48.682;9.024;2022-09-19T05:57:32;4.50;;;2.07;;
4011;SDS011;2020;48.682;9.024;2022-09-19T05:59:59;2.50;;;1.50;;
4011;SDS011;2020;48.682;9.024;2022-09-19T06:02:24;2.80;;;1.43;;
4011;SDS011;2020;48.682;9.024;2022-09-19T06:04:49;3.50;;;1.70;;
4011;SDS011;2020;48.682;9.024;2022-09-19T06:07:15;3.43;;;1.13;;
4011;SDS011;2020;48.682;9.024;2022-09-19T06:09:40;3.40;;;1.30;;
4011;SDS011;2020;48.682;9.024;2022-09-19T06:12:07;7.10;;;1.70;;
4011;SDS011;2020;48.682;9.024;2022-09-19T06:14:32;4.10;;;1.67;;
4011;SDS011;2020;48.682;9.024;2022-09-19T06:17:00;1.23;;;1.03;;
4011;SDS011;2020;48.682;9.024;2022-09-19T06:19:25;2.00;;;1.00;;
4011;SDS011;2020;48.682;9.024;2022-09-19T06:21:51;1.80;;;1.00;;
4011;SDS011;2020;48.682;9.024;2022-09-19T06:24:16;1.07;;;0.97;;
4011;SDS011;2020;48.682;9.024;2022-09-19T06:26:41;3.23;;;1.00;;
4011;SDS011;2020;48.682;9.024;2022-09-19T06:29:06;4.70;;;1.50;;
4011;SDS011;2020;48.682;9.024;2022-09-19T06:31:32;2.60;;;2.07;;
4011;SDS011;2020;48.682;9.024;2022-09-19T06:33:57;3.90;;;1.80;;
4011;SDS011;2020;48.682;9.024;2022-09-19T06:36:22;3.90;;;2.00;;
4011;SDS011;2020;48.682;9.024;2022-09-19T06:38:47;8.20;;;2.80;;
4011;SDS011;2020;48.682;9.024;2022-09-19T06:41:13;3.03;;;2.30;;
4011;SDS011;2020;48.682;9.024;2022-09-19T06:43:39;3.37;;;1.57;;
4011;SDS011;2020;48.682;9.024;2022-09-19T06:46:04;2.00;;;1.50;;
4011;SDS011;2020;48.682;9.024;2022-09-19T06:48:30;2.80;;;1.93;;
4011;SDS011;2020;48.682;9.024;2022-09-19T06:50:55;2.63;;;1.80;;
4011;SDS011;2020;48.682;9.024;2022-09-19T06:53:21;4.17;;;1.93;;
4011;SDS011;2020;48.682;9.024;2022-09-19T06:55:46;1.60;;;1.50;;
4011;SDS011;2020;48.682;9.024;2022-09-19T06:58:12;2.90;;;1.50;;
4011;SDS011;2020;48.682;9.024;2022-09-19T07:00:39;5.80;;;1.70;;
4011;SDS011;2020;48.682;9.024;2022-09-19T07:05:34;6.30;;;1.33;;
4011;SDS011;2020;48.682;9.024;2022-09-19T07:08:00;5.03;;;1.37;;
4011;SDS011;2020;48.682;9.024;2022-09-19T07:10:26;2.50;;;1.83;;
4011;SDS011;2020;48.682;9.024;2022-09-19T07:12:53;2.00;;;1.30;;
4011;SDS011;2020;48.682;9.024;2022-09-19T07:15:20;3.60;;;1.60;;
4011;SDS011;2020;48.682;9.024;2022-09-19T07:17:46;2.70;;;1.20;;
4011;SDS011;2020;48.682;9.024;2022-09-19T07:20:11;1.43;;;1.33;;
4011;SDS011;2020;48.682;9.024;2022-09-19T07:22:36;8.17;;;2.03;;
4011;SDS011;2020;48.682;9.024;2022-09-19T07:25:02;3.07;;;1.20;;
4011;SDS011;2020;48.682;9.024;2022-09-19T07:27:27;3.17;;;1.63;;
4011;SDS011;2020;48.682;9.024;2022-09-19T07:29:52;4.57;;;1.50;;
4011;SDS011;2020;48.682;9.024;2022-09-19T07:32:18;7.03;;;1.90;;
4011;SDS011;2020;48.682;9.024;2022-09-19T07:34:43;5.50;;;1.70;;
4011;SDS011;2020;48.682;9.024;2022-09-19T07:37:09;2.70;;;1.20;;
4011;SDS011;2020;48.682;9.024;2022-09-19T07:39:35;4.90;;;3.10;;
4011;SDS011;2020;48.682;9.024;2022-09-19T07:42:00;11.13;;;1.67;;
4011;SDS011;2020;48.682;9.024;2022-09-19T07:44:25;1.47;;;1.20;;
4011;SDS011;2020;48.682;9.024;2022-09-19T07:46:50;5.20;;;1.90;;
4011;SDS011;2020;48.682;9.024;2022-09-19T07:49:34;3.30;;;1.53;;
4011;SDS011;2020;48.682;9.024;2022-09-19T07:52:00;4.37;;;1.47;;
4011;SDS011;2020;48.682;9.024;2022-09-19T07:54:25;3.60;;;1.60;;
4011;SDS011;2020;48.682;9.024;2022-09-19T07:56:50;4.57;;;1.40;;
4011;SDS011;2020;48.682;9.024;2022-09-19T07:59:16;3.90;;;1.40;;
4011;SDS011;2020;48.682;9.024;2022-09-19T08:01:42;4.03;;;1.20;;
4011;SDS011;2020;48.682;9.024;2022-09-19T08:04:08;5.10;;;2.10;;
4011;SDS011;2020;48.682;9.024;2022-09-19T08:06:33;2.97;;;1.27;;
4011;SDS011;2020;48.682;9.024;2022-09-19T08:08:58;4.07;;;1.40;;
4011;SDS011;2020;48.682;9.024;2022-09-19T08:11:23;2.70;;;1.60;;
4011;SDS011;2020;48.682;9.024;2022-09-19T08:13:50;6.27;;;1.27;;
4011;SDS011;2020;48.682;9.024;2022-09-19T08:16:15;4.50;;;1.77;;
4011;SDS011;2020;48.682;9.024;2022-09-19T08:18:41;4.77;;;1.60;;
4011;SDS011;2020;48.682;9.024;2022-09-19T08:21:06;2.97;;;1.60;;
4011;SDS011;2020;48.682;9.024;2022-09-19T08:23:32;3.20;;;1.93;;
4011;SDS011;2020;48.682;9.024;2022-09-19T08:25:57;4.97;;;2.73;;
4011;SDS011;2020;48.682;9.024;2022-09-19T08:28:27;2.87;;;1.57;;
4011;SDS011;2020;48.682;9.024;2022-09-19T08:30:58;8.47;;;2.10;;
4011;SDS011;2020;48.682;9.024;2022-09-19T08:33:25;3.43;;;2.40;;
4011;SDS011;2020;48.682;9.024;2022-09-19T08:35:51;2.97;;;1.80;;
4011;SDS011;2020;48.682;9.024;2022-09-19T08:38:17;2.40;;;1.70;;
4011;SDS011;2020;48.682;9.024;2022-09-19T08:40:48;1.60;;;1.50;;
4011;SDS011;2020;48.682;9.024;2022-09-19T08:51:59;1.90;;;1.60;;
4011;SDS011;2020;48.682;9.024;2022-09-19T08:54:31;2.03;;;1.67;;
4011;SDS011;2020;48.682;9.024;2022-09-19T08:57:01;2.60;;;1.50;;
4011;SDS011;2020;48.682;9.024;2022-09-19T08:59:31;1.83;;;1.73;;
4011;SDS011;2020;48.682;9.024;2022-09-19T09:05:03;4.03;;;2.00;;
4011;SDS011;2020;48.682;9.024;2022-09-19T09:10:07;4.67;;;1.97;;
4011;SDS011;2020;48.682;9.024;2022-09-19T09:12:43;3.00;;;1.67;;
4011;SDS011;2020;48.682;9.024;2022-09-19T09:15:21;2.13;;;1.90;;
4011;SDS011;2020;48.682;9.024;2022-09-19T09:17:57;8.00;;;1.97;;
4011;SDS011;2020;48.682;9.024;2022-09-19T09:20:27;9.10;;;2.63;;
4011;SDS011;2020;48.682;9.024;2022-09-19T09:23:07;1.73;;;1.57;;
4011;SDS011;2020;48.682;9.024;2022-09-19T09:25:43;9.07;;;2.07;;
4011;SDS011;2020;48.682;9.024;2022-09-19T09:28:18;5.30;;;2.03;;
4011;SDS011;2020;48.682;9.024;2022-09-19T09:30:52;4.63;;;1.77;;
4011;SDS011;2020;48.682;9.024;2022-09-19T09:33:31;4.73;;;3.33;;
4011;SDS011;2020;48.682;9.024;2022-09-19T09:36:09;3.30;;;3.03;;
4011;SDS011;2020;48.682;9.024;2022-09-19T09:38:42;3.77;;;2.20;;
4011;SDS011;2020;48.682;9.024;2022-09-19T09:49:13;3.40;;;2.37;;
4011;SDS011;2020;48.682;9.024;2022-09-19T09:57:33;2.13;;;1.70;;
4011;SDS011;2020;48.682;9.024;2022-09-19T10:00:27;3.03;;;1.83;;
4011;SDS011;2020;48.682;9.024;2022-09-19T10:06:23;1.40;;;1.40;;
4011;SDS011;2020;48.682;9.024;2022-09-19T10:14:18;2.80;;;2.30;;
4011;SDS011;2020;48.682;9.024;2022-09-19T10:16:46;5.13;;;1.97;;
4011;SDS011;2020;48.682;9.024;2022-09-19T10:22:04;5.57;;;2.47;;
4011;SDS011;2020;48.682;9.024;2022-09-19T10:24:43;1.67;;;1.33;;
4011;SDS011;2020;48.682;9.024;2022-09-19T10:27:20;1.37;;;1.37;;
4011;SDS011;2020;48.682;9.024;2022-09-19T10:32:41;3.17;;;2.10;;
4011;SDS011;2020;48.682;9.024;2022-09-19T10:35:25;3.37;;;1.40;;
4011;SDS011;2020;48.682;9.024;2022-09-19T10:43:20;1.30;;;1.30;;
4011;SDS011;2020;48.682;9.024;2022-09-19T10:45:47;1.47;;;1.40;;
4011;SDS011;2020;48.682;9.024;2022-09-19T10:48:26;2.10;;;1.20;;
4011;SDS011;2020;48.682;9.024;2022-09-19T10:50:55;3.03;;;1.20;;
4011;SDS011;2020;48.682;9.024;2022-09-19T10:53:27;5.80;;;1.30;;
4011;SDS011;2020;48.682;9.024;2022-09-19T10:55:56;2.53;;;2.10;;
4011;SDS011;2020;48.682;9.024;2022-09-19T10:58:28;1.47;;;1.10;;
4011;SDS011;2020;48.682;9.024;2022-09-19T11:01:00;1.53;;;1.20;;
4011;SDS011;2020;48.682;9.024;2022-09-19T11:03:28;2.00;;;1.13;;
4011;SDS011;2020;48.682;9.024;2022-09-19T11:08:28;1.90;;;1.07;;
4011;SDS011;2020;48.682;9.024;2022-09-19T11:10:55;3.73;;;2.07;;
4011;SDS011;2020;48.682;9.024;2022-09-19T11:13:21;2.57;;;1.10;;
4011;SDS011;2020;48.682;9.024;2022-09-19T11:21:52;1.80;;;1.07;;
4011;SDS011;2020;48.682;9.024;2022-09-19T11:27:51;2.00;;;1.27;;
4011;SDS011;2020;48.682;9.024;2022-09-19T11:30:19;1.37;;;1.27;;
4011;SDS011;2020;48.682;9.024;2022-09-19T11:32:52;4.83;;;2.03;;
4011;SDS011;2020;48.682;9.024;2022-09-19T11:51:49;1.73;;;0.70;;
4011;SDS011;2020;48.682;9.024;2022-09-19T11:55:33;5.10;;;0.80;;
4011;SDS011;2020;48.682;9.024;2022-09-19T12:00:15;2.07;;;0.80;;
4011;SDS011;2020;48.682;9.024;2022-09-19T12:06:42;2.57;;;1.40;;
4011;SDS011;2020;48.682;9.024;2022-09-19T12:11:38;1.27;;;1.13;;
4011;SDS011;2020;48.682;9.024;2022-09-19T12:14:15;1.23;;;1.10;;
4011;SDS011;2020;48.682;9.024;2022-09-19T12:16:49;0.80;;;0.80;;
4011;SDS011;2020;48.682;9.024;2022-09-19T12:19:41;0.80;;;0.80;;
4011;SDS011;2020;48.682;9.024;2022-09-19T12:22:27;1.83;;;0.93;;
4011;SDS011;2020;48.682;9.024;2022-09-19T12:25:16;2.50;;;0.80;;
4011;SDS011;2020;48.682;9.024;2022-09-19T12:27:57;0.67;;;0.67;;
4011;SDS011;2020;48.682;9.024;2022-09-19T12:30:42;1.50;;;0.90;;
4011;SDS011;2020;48.682;9.024;2022-09-19T12:36:08;1.20;;;0.77;;
4011;SDS011;2020;48.682;9.024;2022-09-19T12:41:53;0.80;;;0.80;;
4011;SDS011;2020;48.682;9.024;2022-09-19T12:44:35;3.40;;;0.93;;
4011;SDS011;2020;48.682;9.024;2022-09-19T12:47:12;0.80;;;0.80;;
4011;SDS011;2020;48.682;9.024;2022-09-19T12:52:39;1.73;;;1.30;;
4011;SDS011;2020;48.682;9.024;2022-09-19T12:57:48;1.00;;;1.00;;
4011;SDS011;2020;48.682;9.024;2022-09-19T13:00:15;0.80;;;0.80;;
4011;SDS011;2020;48.682;9.024;2022-09-19T13:05:35;0.80;;;0.80;;
4011;SDS011;2020;48.682;9.024;2022-09-19T13:11:12;1.60;;;1.00;;
4011;SDS011;2020;48.682;9.024;2022-09-19T13:14:10;1.67;;;1.10;;
4011;SDS011;2020;48.682;9.024;2022-09-19T13:16:58;0.90;;;0.90;;
4011;SDS011;2020;48.682;9.024;2022-09-19T13:19:43;2.40;;;1.03;;
4011;SDS011;2020;48.682;9.024;2022-09-19T13:22:28;1.07;;;0.93;;
4011;SDS011;2020;48.682;9.024;2022-09-19T13:25:17;1.47;;;0.90;;
4011;SDS011;2020;48.682;9.024;2022-09-19T13:27:44;0.70;;;0.70;;
4011;SDS011;2020;48.682;9.024;2022-09-19T13:33:21;1.33;;;0.70;;
4011;SDS011;2020;48.682;9.024;2022-09-19T13:35:52;1.37;;;0.70;;
4011;SDS011;2020;48.682;9.024;2022-09-19T13:38:22;0.70;;;0.70;;
4011;SDS011;2020;48.682;9.024;2022-09-19T13:41:05;3.63;;;0.90;;
4011;SDS011;2020;48.682;9.024;2022-09-19T13:43:46;2.00;;;0.80;;
4011;SDS011;2020;48.682;9.024;2022-09-19T13:47:12;1.10;;;0.90;;
4011;SDS011;2020;48.682;9.024;2022-09-19T13:49:30;1.30;;;0.80;;
4011;SDS011;2020;48.682;9.024;2022-09-19T13:52:10;0.70;;;0.70;;
4011;SDS011;2020;48.682;9.024;2022-09-19T13:57:25;1.20;;;0.80;;
4011;SDS011;2020;48.682;9.024;2022-09-19T13:59:55;0.90;;;0.80;;
4011;SDS011;2020;48.682;9.024;2022-09-19T14:02:34;0.90;;;0.90;;
4011;SDS011;2020;48.682;9.024;2022-09-19T14:05:05;0.70;;;0.70;;
4011;SDS011;2020;48.682;9.024;2022-09-19T14:10:21;2.50;;;0.90;;
4011;SDS011;2020;48.682;9.024;2022-09-19T14:12:52;0.80;;;0.80;;
4011;SDS011;2020;48.682;9.024;2022-09-19T14:20:58;0.70;;;0.70;;
4011;SDS011;2020;48.682;9.024;2022-09-19T14:23:27;0.83;;;0.83;;
4011;SDS011;2020;48.682;9.024;2022-09-19T14:25:55;1.70;;;0.70;;
4011;SDS011;2020;48.682;9.024;2022-09-19T14:39:48;2.00;;;0.90;;
4011;SDS011;2020;48.682;9.024;2022-09-19T14:45:47;1.13;;;0.80;;
4011;SDS011;2020;48.682;9.024;2022-09-19T14:48:33;1.63;;;1.30;;
4011;SDS011;2020;48.682;9.024;2022-09-19T14:51:10;1.57;;;1.47;;
4011;SDS011;2020;48.682;9.024;2022-09-19T14:54:38;1.80;;;0.93;;
4011;SDS011;2020;48.682;9.024;2022-09-19T14:59:21;1.10;;;1.10;;
4011;SDS011;2020;48.682;9.024;2022-09-19T15:01:47;3.60;;;0.83;;
4011;SDS011;2020;48.682;9.024;2022-09-19T15:04:19;1.10;;;0.80;;
4011;SDS011;2020;48.682;9.024;2022-09-19T15:06:49;2.10;;;0.97;;
4011;SDS011;2020;48.682;9.024;2022-09-19T15:09:27;1.00;;;1.00;;
4011;SDS011;2020;48.682;9.024;2022-09-19T15:11:55;1.40;;;0.90;;
4011;SDS011;2020;48.682;9.024;2022-09-19T15:14:22;0.77;;;0.77;;
4011;SDS011;2020;48.682;9.024;2022-09-19T15:19:39;1.43;;;0.90;;
4011;SDS011;2020;48.682;9.024;2022-09-19T15:24:52;1.13;;;1.13;;
4011;SDS011;2020;48.682;9.024;2022-09-19T15:27:20;0.83;;;0.83;;
4011;SDS011;2020;48.682;9.024;2022-09-19T15:29:49;2.60;;;0.90;;
4011;SDS011;2020;48.682;9.024;2022-09-19T15:34:40;3.40;;;1.00;;
4011;SDS011;2020;48.682;9.024;2022-09-19T15:37:12;1.23;;;0.70;;
4011;SDS011;2020;48.682;9.024;2022-09-19T15:39:41;3.43;;;1.00;;
4011;SDS011;2020;48.682;9.024;2022-09-19T15:42:07;2.13;;;0.90;;
4011;SDS011;2020;48.682;9.024;2022-09-19T15:44:35;1.90;;;1.00;;
4011;SDS011;2020;48.682;9.024;2022-09-19T15:47:01;0.90;;;0.90;;
4011;SDS011;2020;48.682;9.024;2022-09-19T15:49:33;2.33;;;1.20;;
4011;SDS011;2020;48.682;9.024;2022-09-19T15:52:05;6.53;;;1.30;;
4011;SDS011;2020;48.682;9.024;2022-09-19T15:54:33;1.17;;;1.17;;
4011;SDS011;2020;48.682;9.024;2022-09-19T15:57:33;2.97;;;1.63;;
4011;SDS011;2020;48.682;9.024;2022-09-19T16:02:28;2.07;;;1.50;;
4011;SDS011;2020;48.682;9.024;2022-09-19T16:05:03;1.87;;;1.77;;
4011;SDS011;2020;48.682;9.024;2022-09-19T16:07:40;1.60;;;0.97;;
4011;SDS011;2020;48.682;9.024;2022-09-19T16:10:24;1.50;;;1.40;;
4011;SDS011;2020;48.682;9.024;2022-09-19T16:12:53;1.70;;;1.60;;
4011;SDS011;2020;48.682;9.024;2022-09-19T16:15:35;2.50;;;1.10;;
4011;SDS011;2020;48.682;9.024;2022-09-19T16:18:13;1.13;;;1.00;;
4011;SDS011;2020;48.682;9.024;2022-09-19T16:20:46;2.10;;;1.10;;
4011;SDS011;2020;48.682;9.024;2022-09-19T16:23:28;1.20;;;1.20;;
4011;SDS011;2020;48.682;9.024;2022-09-19T16:26:02;2.00;;;1.13;;
4011;SDS011;2020;48.682;9.024;2022-09-19T16:28:36;2.40;;;1.10;;
4011;SDS011;2020;48.682;9.024;2022-09-19T16:31:07;4.10;;;1.40;;
4011;SDS011;2020;48.682;9.024;2022-09-19T16:33:39;0.97;;;0.97;;
4011;SDS011;2020;48.682;9.024;2022-09-19T16:36:08;3.37;;;1.37;;
4011;SDS011;2020;48.682;9.024;2022-09-19T16:38:36;2.83;;;2.63;;
4011;SDS011;2020;48.682;9.024;2022-09-19T16:41:05;4.97;;;1.87;;
4011;SDS011;2020;48.682;9.024;2022-09-19T16:43:41;1.17;;;1.17;;
4011;SDS011;2020;48.682;9.024;2022-09-19T16:46:09;1.63;;;1.53;;
4011;SDS011;2020;48.682;9.024;2022-09-19T16:48:36;4.50;;;1.77;;
4011;SDS011;2020;48.682;9.024;2022-09-19T16:51:02;1.43;;;1.43;;
4011;SDS011;2020;48.682;9.024;2022-09-19T16:53:31;1.30;;;1.20;;
4011;SDS011;2020;48.682;9.024;2022-09-19T16:55:58;1.20;;;1.17;;
4011;SDS011;2020;48.682;9.024;2022-09-19T16:58:24;3.23;;;1.40;;
4011;SDS011;2020;48.682;9.024;2022-09-19T17:00:49;1.10;;;1.10;;
4011;SDS011;2020;48.682;9.024;2022-09-19T17:03:15;5.63;;;1.40;;
4011;SDS011;2020;48.682;9.024;2022-09-19T17:05:40;1.43;;;0.93;;
4011;SDS011;2020;48.682;9.024;2022-09-19T17:08:05;1.30;;;1.20;;
4011;SDS011;2020;48.682;9.024;2022-09-19T17:10:31;2.40;;;1.10;;
4011;SDS011;2020;48.682;9.024;2022-09-19T17:12:57;1.33;;;1.20;;
4011;SDS011;2020;48.682;9.024;2022-09-19T17:17:59;1.07;;;1.00;;
4011;SDS011;2020;48.682;9.024;2022-09-19T17:20:25;1.93;;;1.30;;
4011;SDS011;2020;48.682;9.024;2022-09-19T17:22:52;1.90;;;0.90;;
4011;SDS011;2020;48.682;9.024;2022-09-19T17:25:20;5.47;;;1.70;;
4011;SDS011;2020;48.682;9.024;2022-09-19T17:27:50;0.90;;;0.90;;
4011;SDS011;2020;48.682;9.024;2022-09-19T17:30:15;1.30;;;1.20;;
4011;SDS011;2020;48.682;9.024;2022-09-19T17:32:42;3.93;;;1.17;;
4011;SDS011;2020;48.682;9.024;2022-09-19T17:35:12;1.10;;;1.10;;
4011;SDS011;2020;48.682;9.024;2022-09-19T17:37:39;2.27;;;2.13;;
4011;SDS011;2020;48.682;9.024;2022-09-19T17:40:05;1.57;;;1.47;;
4011;SDS011;2020;48.682;9.024;2022-09-19T17:42:31;1.93;;;1.47;;
4011;SDS011;2020;48.682;9.024;2022-09-19T17:44:56;1.47;;;1.37;;
4011;SDS011;2020;48.682;9.024;2022-09-19T17:47:22;1.87;;;1.60;;
4011;SDS011;2020;48.682;9.024;2022-09-19T17:49:47;1.17;;;1.17;;
4011;SDS011;2020;48.682;9.024;2022-09-19T17:52:13;4.63;;;1.90;;
4011;SDS011;2020;48.682;9.024;2022-09-19T17:54:39;1.77;;;1.57;;
4011;SDS011;2020;48.682;9.024;2022-09-19T17:57:04;1.43;;;1.30;;
4011;SDS011;2020;48.682;9.024;2022-09-19T17:59:29;3.03;;;2.00;;
4011;SDS011;2020;48.682;9.024;2022-09-19T18:01:54;2.10;;;1.60;;
4011;SDS011;2020;48.682;9.024;2022-09-19T18:04:38;2.87;;;2.33;;
4011;SDS011;2020;48.682;9.024;2022-09-19T18:07:04;2.73;;;1.90;;
4011;SDS011;2020;48.682;9.024;2022-09-19T18:09:29;3.00;;;2.90;;
4011;SDS011;2020;48.682;9.024;2022-09-19T18:11:54;2.93;;;2.73;;
4011;SDS011;2020;48.682;9.024;2022-09-19T18:14:20;4.07;;;3.70;;
4011;SDS011;2020;48.682;9.024;2022-09-19T18:16:46;4.43;;;4.03;;
4011;SDS011;2020;48.682;9.024;2022-09-19T18:19:12;5.80;;;5.20;;
4011;SDS011;2020;48.682;9.024;2022-09-19T18:21:37;6.90;;;5.10;;
4011;SDS011;2020;48.682;9.024;2022-09-19T18:24:04;4.03;;;3.67;;
4011;SDS011;2020;48.682;9.024;2022-09-19T18:26:32;2.80;;;2.70;;
4011;SDS011;2020;48.682;9.024;2022-09-19T18:28:58;5.40;;;3.00;;
4011;SDS011;2020;48.682;9.024;2022-09-19T18:31:23;3.07;;;2.70;;
4011;SDS011;2020;48.682;9.024;2022-09-19T18:33:49;3.40;;;3.20;;
4011;SDS011;2020;48.682;9.024;2022-09-19T18:36:19;5.37;;;3.23;;